地図

経路データ

SID SEASON NUMBER BASIN SUBBASIN NAME ISO_TIME NATURE LAT LON WMO_WIND WMO_PRES WMO_AGENCY TRACK_TYPE DIST2LAND LANDFALL IFLAG USA_AGENCY USA_ATCF_ID USA_LAT USA_LON USA_RECORD USA_STATUS USA_WIND USA_PRES USA_SSHS USA_R34_NE USA_R34_SE USA_R34_SW USA_R34_NW USA_R50_NE USA_R50_SE USA_R50_SW USA_R50_NW USA_R64_NE USA_R64_SE USA_R64_SW USA_R64_NW USA_POCI USA_ROCI USA_RMW USA_EYE TOKYO_LAT TOKYO_LON TOKYO_GRADE TOKYO_WIND TOKYO_PRES TOKYO_R50_DIR TOKYO_R50_LONG TOKYO_R50_SHORT TOKYO_R30_DIR TOKYO_R30_LONG TOKYO_R30_SHORT TOKYO_LAND CMA_LAT CMA_LON CMA_CAT CMA_WIND CMA_PRES HKO_LAT HKO_LON HKO_CAT HKO_WIND HKO_PRES NEWDELHI_LAT NEWDELHI_LON NEWDELHI_GRADE NEWDELHI_WIND NEWDELHI_PRES NEWDELHI_CI NEWDELHI_DP NEWDELHI_POCI REUNION_LAT REUNION_LON REUNION_TYPE REUNION_WIND REUNION_PRES REUNION_TNUM REUNION_CI REUNION_RMW REUNION_R34_NE REUNION_R34_SE REUNION_R34_SW REUNION_R34_NW REUNION_R50_NE REUNION_R50_SE REUNION_R50_SW REUNION_R50_NW REUNION_R64_NE REUNION_R64_SE REUNION_R64_SW REUNION_R64_NW BOM_LAT BOM_LON BOM_TYPE BOM_WIND BOM_PRES BOM_TNUM BOM_CI BOM_RMW BOM_R34_NE BOM_R34_SE BOM_R34_SW BOM_R34_NW BOM_R50_NE BOM_R50_SE BOM_R50_SW BOM_R50_NW BOM_R64_NE BOM_R64_SE BOM_R64_SW BOM_R64_NW BOM_ROCI BOM_POCI BOM_EYE BOM_POS_METHOD BOM_PRES_METHOD NADI_LAT NADI_LON NADI_CAT NADI_WIND NADI_PRES WELLINGTON_LAT WELLINGTON_LON WELLINGTON_WIND WELLINGTON_PRES DS824_LAT DS824_LON DS824_STAGE DS824_WIND DS824_PRES TD9636_LAT TD9636_LON TD9636_STAGE TD9636_WIND TD9636_PRES TD9635_LAT TD9635_LON TD9635_WIND TD9635_PRES TD9635_ROCI NEUMANN_LAT NEUMANN_LON NEUMANN_CLASS NEUMANN_WIND NEUMANN_PRES MLC_LAT MLC_LON MLC_CLASS MLC_WIND MLC_PRES USA_GUST BOM_GUST BOM_GUST_PER REUNION_GUST REUNION_GUST_PER USA_SEAHGT USA_SEARAD_NE USA_SEARAD_SE USA_SEARAD_SW USA_SEARAD_NW STORM_SPEED STORM_DIR
1962330N08098 1962 105 NI BB NOT_NAMED 1962-11-25 18:00:00 TS 7.60000 97.5000 main 110 110 O________O____ jtwc_io IO121962 7.60000 97.5000 -1 7.60000 97.5000 TC 0 0
1962330N08098 1962 105 NI BB NOT_NAMED 1962-11-25 21:00:00 TS 7.59996 97.4975 main 110 110 P________P____ IO121962 7.59996 97.4975 -1 7.59996 97.4975 TC 2 270
1962330N08098 1962 105 NI BB NOT_NAMED 1962-11-26 00:00:00 TS 7.60000 97.3000 main 129 129 O________O____ jtwc_io IO121962 7.60000 97.3000 -1 7.60000 97.3000 TC 25 7 270
1962330N08098 1962 105 NI BB NOT_NAMED 1962-11-26 03:00:00 TS 7.59997 96.7733 main 178 178 P________PO___ IO121962 7.59996 96.7700 -1 7.59996 96.7700 TC 25 7.60000 96.8000 1 13 270
1962330N08098 1962 105 NI BB NOT_NAMED 1962-11-26 06:00:00 TS 7.59557 95.9855 main 230 224 O________OP___ jtwc_io IO121962 7.60000 96.0000 -1 7.60000 96.0000 TC 25 7.57787 95.9277 1 17 269
1962330N08098 1962 105 NI BB NOT_NAMED 1962-11-26 09:00:00 TS 7.58205 95.1065 main 224 224 P________PP___ IO121962 7.58511 95.1224 -1 7.58511 95.1224 TC 25 7.57386 95.0643 1 18 270
1962330N08098 1962 105 NI BB NOT_NAMED 1962-11-26 12:00:00 TS 7.60264 94.2063 main 249 249 O________OP___ jtwc_io IO121962 7.60000 94.2000 -1 7.60000 94.2000 TC 25 7.60791 94.2188 1 17 273
1962330N08098 1962 105 NI BB NOT_NAMED 1962-11-26 15:00:00 TS 7.66990 93.3799 main 308 308 P________PO___ IO121962 7.65485 93.3699 -1 7.65485 93.3699 TC 25 7.70000 93.4000 1 16 278
1962330N08098 1962 105 NI BB NOT_NAMED 1962-11-26 18:00:00 TS 7.82157 92.6056 main 378 378 O________OP___ jtwc_io IO121962 7.80000 92.6000 -1 7.80000 92.6000 TC 25 7.86470 92.6167 1 16 285
1962330N08098 1962 105 NI BB NOT_NAMED 1962-11-26 21:00:00 TS 8.07318 91.8685 main 459 459 P________PP___ IO121962 8.06241 91.8626 -1 8.06241 91.8626 TC 25 8.09472 91.8805 1 15 292
1962330N08098 1962 105 NI BB NOT_NAMED 1962-11-27 00:00:00 TS 8.39246 91.2013 main 541 541 O________OP___ jtwc_io IO121962 8.40000 91.2000 -1 8.40000 91.2000 TC 25 8.37737 91.2040 1 14 298
1962330N08098 1962 105 NI BB NOT_NAMED 1962-11-27 03:00:00 TS 8.72827 90.6033 main 615 615 P________PO___ IO121962 8.74240 90.6050 -1 8.74240 90.6050 TC 25 8.70000 90.6000 1 13 302
1962330N08098 1962 105 NI BB NOT_NAMED 1962-11-27 06:00:00 TS 9.07674 90.0939 main 686 686 O________OP___ jtwc_io IO121962 9.10000 90.1000 -1 9.10000 90.1000 TC 25 9.03022 90.0818 1 12 307
1962330N08098 1962 105 NI BB NOT_NAMED 1962-11-27 09:00:00 TS 9.42708 89.6672 main 741 741 P________PP___ IO121962 9.44234 89.6848 -1 9.44234 89.6848 TC 30 9.39657 89.6319 1 11 312
1962330N08098 1962 105 NI BB NOT_NAMED 1962-11-27 12:00:00 TS 9.79656 89.2720 main 802 802 O________OP___ jtwc_io IO121962 9.80000 89.3000 -1 9.80000 89.3000 TC 35 9.78968 89.2161 1 11 313
1962330N08098 1962 105 NI BB NOT_NAMED 1962-11-27 15:00:00 TS 10.1900 88.8432 main 822 799 P________PO___ IO121962 10.1849 88.8649 -1 10.1849 88.8649 TC 35 10.2000 88.8000 2 12 313
1962330N08098 1962 105 NI BB NOT_NAMED 1962-11-27 18:00:00 TS 10.6088 88.3881 main 799 768 O________OP___ jtwc_io IO121962 10.6000 88.4000 -1 10.6000 88.4000 TC 35 10.6263 88.3643 2 13 313
1962330N08098 1962 105 NI BB NOT_NAMED 1962-11-27 21:00:00 TS 11.0547 87.9156 main 773 743 P________PP___ IO121962 11.0499 87.9149 -1 11.0499 87.9149 TC 50 11.0641 87.9169 2 13 313
1962330N08098 1962 105 NI BB NOT_NAMED 1962-11-28 00:00:00 TS 11.4983 87.4120 main 743 718 O________OP___ jtwc_io IO121962 11.5000 87.4000 -1 11.5000 87.4000 TC 65 11.4949 87.4361 2 13 310
1962330N08098 1962 105 NI BB NOT_NAMED 1962-11-28 03:00:00 TS 11.9149 86.8866 main 718 645 P________PO___ IO121962 11.9223 86.8798 -1 11.9223 86.8798 TC 65 11.9000 86.9000 4 14 306
1962330N08098 1962 105 NI BB NOT_NAMED 1962-11-28 06:00:00 TS 12.2900 86.2955 main 645 578 O________OP___ jtwc_io IO121962 12.3000 86.3000 -1 12.3000 86.3000 TC 65 12.2700 86.2864 4 14 299
1962330N08098 1962 105 NI BB NOT_NAMED 1962-11-28 09:00:00 TS 12.6133 85.6206 main 571 499 P________PP___ IO121962 12.6150 85.6223 -1 12.6150 85.6223 TC 65 12.6100 85.6173 4 15 294
1962330N08098 1962 105 NI BB NOT_NAMED 1962-11-28 12:00:00 TS 12.9066 84.9048 main 499 422 O________OP___ jtwc_io IO121962 12.9000 84.9000 -1 12.9000 84.9000 TC 65 12.9199 84.9145 4 15 293
1962330N08098 1962 105 NI BB NOT_NAMED 1962-11-28 15:00:00 TS 13.2099 84.2000 main 422 346 P________PO___ IO121962 13.2148 84.2000 -1 13.2148 84.2000 TC 65 13.2000 84.2000 4 15 293
1962330N08098 1962 105 NI BB NOT_NAMED 1962-11-28 18:00:00 TS 13.4914 83.4902 main 346 270 O________OP___ jtwc_io IO121962 13.5000 83.5000 -1 13.5000 83.5000 TC 65 13.4742 83.4706 4 15 290
1962330N08098 1962 105 NI BB NOT_NAMED 1962-11-28 21:00:00 TS 13.7158 82.7749 main 270 194 P________PP___ IO121962 13.7149 82.7923 -1 13.7149 82.7923 TC 65 13.7178 82.7401 4 14 287
1962330N08098 1962 105 NI BB NOT_NAMED 1962-11-29 00:00:00 TS 13.9091 82.0798 main 194 123 O________OP___ jtwc_io IO121962 13.9000 82.1000 -1 13.9000 82.1000 TC 65 13.9274 82.0395 4 14 287
1962330N08098 1962 105 NI BB NOT_NAMED 1962-11-29 03:00:00 TS 14.1150 81.4084 main 123 72 P________PO___ IO121962 14.1225 81.4126 -1 14.1225 81.4126 TC 50 14.1000 81.4000 4 13 287
1962330N08098 1962 105 NI BB NOT_NAMED 1962-11-29 06:00:00 TS 14.2739 80.8176 main 72 31 O________OP___ jtwc_io IO121962 14.3000 80.8000 -1 14.3000 80.8000 TC 35 14.2348 80.8440 4 11 283
1962330N08098 1962 105 NI BB NOT_NAMED 1962-11-29 09:00:00 TS 14.3628 80.3317 main 21 0 P________PP___ IO121962 14.3800 80.3124 -1 14.3800 80.3124 TC 30 14.3399 80.3574 4 9 279
1962330N08098 1962 105 NI BB NOT_NAMED 1962-11-29 12:00:00 TS 14.4125 79.9086 main 0 0 O________OP___ jtwc_io IO121962 14.4000 79.9000 -1 14.4000 79.9000 TC 25 14.4250 79.9172 4 8 280
1962330N08098 1962 105 NI BB NOT_NAMED 1962-11-29 15:00:00 NR 14.5000 79.5000 main 0 __________O___ IO121962 -1 TC 14.5000 79.5000 1 8 282

IBTrACS Databaseについて

本データベースは、米国NOAAが公開する1842年以降の世界の熱帯低気圧のベストトラックデータアーカイブInternational Best Track Archive for Climate Stewardship (IBTrACS)を、ウェブで閲覧しやすい形式に変換したものです。

最終更新日:2021-10-25